Skip Navigation Links
NOAA logo - Click to go to the NOAA homepage
NOAA's National Weather Service
Alaska Aviation Weather Unit
  NWS logo - Click to go to the NWS homepage
Left Navbar Graphic     02 AKDT = 10 GMT

   
NOAA is celebrating 200 years of science, service, and stewardship. Visit the NOAA 200th celebration Web site to learn more.
USA.gov is the U.S. Government's official Web portal to all Federal, state and local government Web resources and services.
Facebook
NWS on Facebook

AAWU Home :: Display TAF Add Bookmark
TAF PAAQ 270533Z 2706/2806 VRB04KT P6SM SCT100
     FM272100 05005KT P6SM BKN080 OVC120=
METAR PAAQ 270453Z AUTO 00000KT 10SM CLR M03/M11 A2959 RMK AO2 SLP027
     T10281106 TSNO $=

METAR PAAQ 270553Z AUTO 00000KT 10SM CLR M04/M11 A2958 RMK AO2 SLP023
     T10441106 10006 21061 58006 TSNO $=

METAR PAAQ 270653Z AUTO 02004KT 10SM CLR M07/M11 A2958 RMK AO2 SLP022
     T10671106 TSNO $=

METAR PAAQ 270753Z AUTO 33003KT 10SM SCT100 M07/M12 A2956 RMK AO2 SLP016
     T10721117 TSNO $=

METAR PAAQ 270853Z AUTO 00000KT 10SM CLR M08/M12 A2955 RMK AO2 SLP013
     T10781117 400061122 58010 TSNO $=

METAR PAAQ 270953Z AUTO 00000KT 10SM SCT100 M08/M12 A2954 RMK AO2 SLP007
     T10781122 TSNO $=


NOAA's National Weather Service
Alaska Aviation Weather Unit
6930 Sand Lake Road
Anchorage, AK 99502-1845
Disclaimer
Credits
Glossary
Privacy Policy
About Us
Career Opportunities
Contact AAWU Internet Services Site last modified: April, 17th 2012